KLGB/LGB METAR and TAF weather

Enter ICAO airport designator
Station Type Date Time Source
KLGB METAR 2020/08/10 23:53 UTC NOAA

KLGB 102353Z 30010KT 10SM CLR 25/15 A2989 RMK AO2 SLP120 T02500150 10278 20217 56012


Station Type Date Time Source
KLGB Decoded METAR 2020/08/10 23:53 UTC NOAA

LONG BEACH AIRPORT, CA, United States (KLGB) 33-49N 118-09W 10M
Aug 10, 2020 - 07:53 PM EDT / 2020.08.10 2353 UTC
Wind: from the WNW (300 degrees) at 12 MPH (10 KT):0
Visibility: 10 mile(s):0
Sky conditions: clear
Temperature: 77.0 F (25.0 C)
Dew Point: 59.0 F (15.0 C)
Relative Humidity: 53%
Pressure (altimeter): 29.89 in. Hg (1012 hPa)
Pressure tendency: 0.04 inches (1.2 hPa) lower than three hours ago
ob: KLGB 102353Z 30010KT 10SM CLR 25/15 A2989 RMK AO2 SLP120 T02500150 10278 20217 56012
cycle: 0

Station Type Date Time Source
KLGB TAF 2020/08/10 18:24 UTC NOAA

TAF KLGB 101720Z 1018/1118 30004KT 6SM HZ FEW009
FM102000 18008KT P6SM SKC
FM102300 30008KT P6SM SKC
FM111000 VRB03KT P6SM BKN008
FM111600 16005KT P6SM OVC008

Example: see airport list